Time;durP1;ratioP1;P1;durP2;ratioP2;P2;SDS_P1;SDS_P2;PMS_P1;PMS_P2;Temp;Humidity;BMP_temperature;BMP_pressure;BME280_temperature;BME280_humidity;BME280_pressure;Samples;Min_cycle;Max_cycle;Signal;HPM_P1;HPM_P2
2023/06/27 00:00:46;;;;;;;8.77;3.80;;;15.20;99.90;;;;;;5081067;28;20044;-57
2023/06/27 00:03:11;;;;;;;10.52;4.18;;;15.10;99.90;;;;;;5080626;28;20048;-58
2023/06/27 00:05:38;;;;;;;8.50;3.83;;;15.20;99.90;;;;;;5080686;28;20436;-58
2023/06/27 00:08:06;;;;;;;7.90;3.72;;;15.00;99.90;;;;;;5080689;28;20048;-58
2023/06/27 00:10:32;;;;;;;8.88;4.00;;;15.10;99.90;;;;;;5079975;28;20040;-58
2023/06/27 00:12:58;;;;;;;9.98;3.80;;;15.10;99.90;;;;;;5080795;28;20514;-58
2023/06/27 00:15:24;;;;;;;8.20;3.70;;;15.10;99.90;;;;;;5080043;28;20051;-58
2023/06/27 00:17:53;;;;;;;8.43;4.00;;;15.00;99.90;;;;;;5080082;28;20158;-57
2023/06/27 00:20:19;;;;;;;9.52;4.10;;;15.10;99.90;;;;;;5080277;28;20068;-56
2023/06/27 00:22:46;;;;;;;12.63;3.90;;;15.00;99.90;;;;;;5080439;28;20036;-57
2023/06/27 00:25:12;;;;;;;7.65;3.97;;;15.10;99.90;;;;;;5080565;28;20090;-57
2023/06/27 00:27:38;;;;;;;11.20;4.07;;;15.10;99.90;;;;;;5080064;28;20049;-58
2023/06/27 00:30:04;;;;;;;8.18;3.95;;;15.10;99.90;;;;;;5080453;28;20141;-57
2023/06/27 00:32:30;;;;;;;9.38;3.90;;;15.00;99.90;;;;;;5079641;28;20068;-58
2023/06/27 00:34:56;;;;;;;10.27;4.05;;;14.90;99.90;;;;;;5080492;28;20036;-58
2023/06/27 00:37:22;;;;;;;7.85;4.20;;;15.00;99.90;;;;;;5079808;28;20123;-57
2023/06/27 00:39:47;;;;;;;9.57;3.95;;;15.00;99.90;;;;;;5080172;28;20044;-58
2023/06/27 00:42:13;;;;;;;8.52;3.80;;;15.10;99.90;;;;;;5078991;28;20048;-58
2023/06/27 00:44:39;;;;;;;8.95;3.83;;;15.00;99.90;;;;;;5079796;28;20036;-58
2023/06/27 00:47:05;;;;;;;10.00;4.47;;;15.00;99.90;;;;;;5079811;28;20048;-57
2023/06/27 00:49:31;;;;;;;10.73;4.35;;;14.90;99.90;;;;;;5079372;28;20048;-57
2023/06/27 00:51:58;;;;;;;9.70;4.35;;;14.90;99.90;;;;;;5080160;28;20426;-58
2023/06/27 00:54:24;;;;;;;11.43;4.00;;;14.90;99.90;;;;;;5079852;28;20063;-57
2023/06/27 00:56:55;;;;;;;13.18;5.35;;;14.90;99.90;;;;;;5080158;28;20044;-58
2023/06/27 00:59:21;;;;;;;8.07;4.07;;;15.00;99.90;;;;;;5079868;28;20056;-57
2023/06/27 01:01:48;;;;;;;11.38;4.22;;;14.90;99.90;;;;;;5079526;28;20044;-57
2023/06/27 01:04:14;;;;;;;8.27;3.72;;;14.90;99.90;;;;;;5080035;28;20045;-57
2023/06/27 01:06:56;;;;;;;9.95;4.00;;;14.80;99.90;;;;;;5079326;28;20083;-58
2023/06/27 01:09:21;;;;;;;;;;;14.80;99.90;;;;;;5080642;28;20049;-58
2023/06/27 01:11:53;;;;;;;10.18;4.25;;;14.60;99.90;;;;;;5079674;28;19977;-58
2023/06/27 01:14:20;;;;;;;10.85;4.38;;;14.70;99.90;;;;;;5079744;28;20056;-57
2023/06/27 01:16:51;;;;;;;8.55;4.53;;;14.60;99.90;;;;;;5079918;28;20048;-57
2023/06/27 01:19:21;;;;;;;10.00;4.35;;;14.60;99.90;;;;;;5079521;28;20049;-59
2023/06/27 01:21:52;;;;;;;7.53;3.97;;;14.50;99.90;;;;;;5080059;28;20127;-58
2023/06/27 01:24:18;;;;;;;10.20;4.30;;;14.40;99.90;;;;;;5079474;28;20489;-57
2023/06/27 01:26:43;;;;;;;9.05;4.00;;;14.50;99.90;;;;;;5079569;28;20048;-57
2023/06/27 01:29:11;;;;;;;8.60;4.32;;;14.50;99.90;;;;;;5080110;28;20040;-57
2023/06/27 01:32:09;;;;;;;9.95;4.40;;;14.40;99.90;;;;;;5083369;28;20044;-57
2023/06/27 01:35:00;;;;;;;10.10;4.70;;;14.50;99.90;;;;;;5083310;28;20059;-57
2023/06/27 01:37:31;;;;;;;10.37;4.50;;;14.50;99.90;;;;;;5083393;28;20466;-58
2023/06/27 01:40:07;;;;;;;8.07;4.25;;;14.40;99.90;;;;;;5082329;28;20102;-58
2023/06/27 01:42:46;;;;;;;8.85;4.50;;;14.50;99.90;;;;;;5083493;28;20514;-57
2023/06/27 01:45:12;;;;;;;8.43;4.43;;;14.50;99.90;;;;;;5083023;28;20048;-58
2023/06/27 01:47:41;;;;;;;9.85;4.07;;;14.50;99.90;;;;;;5083608;28;20036;-58
2023/06/27 01:50:11;;;;;;;8.52;4.05;;;14.50;99.90;;;;;;5082832;28;20516;-58
2023/06/27 01:52:37;;;;;;;9.38;4.20;;;14.50;99.90;;;;;;5083422;28;20048;-58
2023/06/27 01:55:03;;;;;;;8.88;4.30;;;14.30;99.90;;;;;;5083482;28;20033;-56
2023/06/27 01:57:29;;;;;;;7.85;3.80;;;14.30;99.90;;;;;;5082897;28;20063;-58
2023/06/27 01:59:55;;;;;;;9.52;4.35;;;14.30;99.90;;;;;;5082025;28;20102;-58
2023/06/27 02:02:21;;;;;;;9.27;4.32;;;14.30;99.90;;;;;;5082634;28;20107;-58
2023/06/27 02:04:47;;;;;;;8.55;3.97;;;14.20;99.90;;;;;;5083455;28;20052;-58
2023/06/27 02:07:13;;;;;;;9.52;4.25;;;14.10;99.90;;;;;;5082826;28;20036;-58
2023/06/27 02:09:39;;;;;;;8.13;4.47;;;14.10;99.90;;;;;;5082820;28;20067;-57
2023/06/27 02:12:05;;;;;;;10.63;4.40;;;14.00;99.90;;;;;;5083232;28;20117;-57
2023/06/27 02:14:31;;;;;;;9.13;4.50;;;14.10;99.90;;;;;;5082593;28;20040;-58
2023/06/27 02:16:56;;;;;;;12.43;4.80;;;14.20;99.90;;;;;;5082978;28;20048;-58
2023/06/27 02:19:22;;;;;;;8.30;4.38;;;14.20;99.90;;;;;;5080946;28;20067;-55
2023/06/27 02:21:49;;;;;;;11.05;4.63;;;14.20;99.90;;;;;;5081551;28;20051;-58
2023/06/27 02:24:14;;;;;;;7.95;4.22;;;14.20;99.90;;;;;;5082588;28;20044;-56
2023/06/27 02:26:40;;;;;;;7.40;3.67;;;14.20;99.90;;;;;;5083034;28;20036;-58
2023/06/27 02:29:06;;;;;;;9.10;4.43;;;14.20;99.90;;;;;;5082669;28;20100;-58
2023/06/27 02:31:31;;;;;;;8.18;4.40;;;14.20;99.90;;;;;;5082564;28;20041;-58
2023/06/27 02:33:58;;;;;;;9.25;3.72;;;14.20;99.90;;;;;;5082692;28;20052;-57
2023/06/27 02:36:27;;;;;;;11.70;4.18;;;14.20;99.90;;;;;;5081647;28;20040;-58
2023/06/27 02:38:55;;;;;;;9.20;4.18;;;14.10;99.90;;;;;;5082709;28;20052;-58
2023/06/27 02:41:22;;;;;;;8.40;4.22;;;14.20;99.90;;;;;;5081278;28;20092;-58
2023/06/27 02:43:48;;;;;;;7.20;3.95;;;14.10;99.90;;;;;;5082696;28;20048;-58
2023/06/27 02:46:14;;;;;;;11.43;4.60;;;14.10;99.90;;;;;;5082416;28;20100;-56
2023/06/27 02:48:39;;;;;;;8.05;4.20;;;14.20;99.90;;;;;;5082302;28;20037;-58
2023/06/27 02:51:05;;;;;;;8.27;4.22;;;14.20;99.90;;;;;;5081377;28;20068;-58
2023/06/27 02:53:30;;;;;;;10.57;4.40;;;14.20;99.90;;;;;;5081692;28;20040;-59
2023/06/27 02:55:57;;;;;;;9.80;4.15;;;14.20;99.90;;;;;;5082285;28;20048;-58
2023/06/27 02:58:24;;;;;;;10.70;4.40;;;14.20;99.90;;;;;;5081424;28;20060;-58
2023/06/27 03:00:50;;;;;;;7.20;3.75;;;14.20;99.90;;;;;;5082546;28;20049;-58
2023/06/27 03:03:15;;;;;;;8.75;4.22;;;14.00;99.90;;;;;;5082040;28;20045;-57
2023/06/27 03:05:41;;;;;;;7.53;3.90;;;14.10;99.90;;;;;;5081965;28;20041;-58
2023/06/27 03:08:07;;;;;;;10.73;4.30;;;14.20;99.90;;;;;;5082009;28;20048;-58
2023/06/27 03:10:32;;;;;;;8.45;4.05;;;14.20;99.90;;;;;;5081405;28;20052;-58
2023/06/27 03:12:59;;;;;;;7.22;3.90;;;14.20;99.90;;;;;;5080621;28;20076;-58
2023/06/27 03:15:24;;;;;;;8.32;3.90;;;14.20;99.90;;;;;;5081510;28;20433;-58
2023/06/27 03:17:50;;;;;;;9.45;4.18;;;14.10;99.90;;;;;;5082090;28;20492;-57
2023/06/27 03:20:16;;;;;;;13.43;4.68;;;14.20;99.90;;;;;;5081910;28;20385;-58
2023/06/27 03:22:41;;;;;;;11.25;3.88;;;14.10;99.90;;;;;;5081827;28;20051;-58
2023/06/27 03:25:10;;;;;;;10.35;3.90;;;14.10;99.90;;;;;;5081891;28;20044;-58
2023/06/27 03:27:36;;;;;;;9.40;4.10;;;14.10;99.90;;;;;;5080952;28;20496;-56
2023/06/27 03:30:02;;;;;;;8.57;3.88;;;14.10;99.90;;;;;;5080208;28;20048;-58
2023/06/27 03:32:28;;;;;;;7.30;3.72;;;14.00;99.90;;;;;;5081155;28;20048;-58
2023/06/27 03:34:54;;;;;;;9.48;3.28;;;14.00;99.90;;;;;;5081995;28;20044;-57
2023/06/27 03:37:19;;;;;;;8.57;3.83;;;14.00;99.90;;;;;;5079461;28;20098;-57
2023/06/27 03:39:45;;;;;;;9.70;3.63;;;13.90;99.90;;;;;;5081450;28;20049;-57
2023/06/27 03:42:11;;;;;;;7.95;3.60;;;13.90;99.90;;;;;;5078407;28;20076;-58
2023/06/27 03:44:37;;;;;;;7.75;3.33;;;14.00;99.90;;;;;;5069185;28;20037;-58
2023/06/27 03:47:03;;;;;;;10.52;3.85;;;13.90;99.90;;;;;;5076914;28;20037;-58
2023/06/27 03:49:29;;;;;;;12.27;4.05;;;14.00;99.90;;;;;;5060881;28;20037;-58
2023/06/27 03:51:55;;;;;;;9.32;3.30;;;14.10;99.90;;;;;;5060050;28;20945;-59
2023/06/27 03:54:21;;;;;;;9.27;3.47;;;14.10;99.90;;;;;;5060871;28;20060;-57
2023/06/27 03:56:47;;;;;;;8.95;3.33;;;14.20;99.90;;;;;;5060843;28;20045;-58
2023/06/27 03:59:13;;;;;;;8.18;3.38;;;14.30;99.90;;;;;;5060802;28;20056;-56
2023/06/27 04:01:41;;;;;;;8.90;3.75;;;14.20;99.90;;;;;;5060564;28;20045;-58
2023/06/27 04:04:08;;;;;;;7.10;3.45;;;14.20;99.90;;;;;;5060957;28;20052;-58
2023/06/27 04:06:34;;;;;;;6.93;3.20;;;14.20;99.90;;;;;;5061708;28;20550;-58
2023/06/27 04:09:02;;;;;;;8.43;3.50;;;14.20;99.90;;;;;;5080906;28;20040;-57
2023/06/27 04:11:28;;;;;;;8.60;4.57;;;14.30;99.90;;;;;;5080095;28;20048;-58
2023/06/27 04:13:56;;;;;;;10.35;3.50;;;14.30;99.90;;;;;;5080962;28;20040;-58
2023/06/27 04:16:22;;;;;;;9.63;3.47;;;14.30;99.90;;;;;;5080818;28;20052;-58
2023/06/27 04:18:48;;;;;;;10.93;3.25;;;14.40;99.90;;;;;;5080017;28;20123;-58
2023/06/27 04:21:13;;;;;;;7.65;3.58;;;14.40;99.90;;;;;;5080918;28;20036;-58
2023/06/27 04:23:39;;;;;;;7.43;3.20;;;14.50;99.90;;;;;;5080074;28;20480;-58
2023/06/27 04:26:07;;;;;;;10.93;3.28;;;14.60;99.90;;;;;;5080504;28;20037;-58
2023/06/27 04:28:34;;;;;;;11.02;3.55;;;14.60;99.90;;;;;;5080110;28;20605;-58
2023/06/27 04:31:00;;;;;;;9.25;3.50;;;14.70;99.90;;;;;;5080615;28;20029;-57
2023/06/27 04:33:27;;;;;;;9.73;4.22;;;14.50;99.90;;;;;;5080041;28;20483;-57
2023/06/27 04:36:03;;;;;;;10.70;5.00;;;14.70;99.90;;;;;;5079929;28;20082;-58
2023/06/27 04:38:38;;;;;;;8.55;3.30;;;14.60;99.90;;;;;;5079979;28;20064;-58
2023/06/27 04:41:05;;;;;;;8.80;3.78;;;14.70;99.90;;;;;;5079465;28;20132;-58
2023/06/27 04:43:32;;;;;;;8.43;3.15;;;14.90;99.90;;;;;;5080048;28;20104;-57
2023/06/27 04:45:58;;;;;;;8.23;3.60;;;15.00;99.90;;;;;;5077420;28;20191;-58
2023/06/27 04:48:24;;;;;;;8.70;3.30;;;15.10;99.90;;;;;;5076962;28;20051;-58
2023/06/27 04:50:50;;;;;;;8.48;3.00;;;15.20;99.90;;;;;;5076417;28;20045;-58
2023/06/27 04:53:19;;;;;;;8.70;3.70;;;15.20;99.90;;;;;;5076060;28;20041;-57
2023/06/27 04:55:49;;;;;;;8.45;3.58;;;15.20;99.90;;;;;;5076614;28;20056;-57
2023/06/27 04:58:15;;;;;;;7.47;3.45;;;15.40;99.90;;;;;;5075382;28;20067;-58
2023/06/27 05:00:43;;;;;;;7.10;3.63;;;15.50;99.90;;;;;;5076794;28;20101;-58
2023/06/27 05:03:08;;;;;;;9.63;3.72;;;15.60;99.90;;;;;;5076470;28;20044;-57
2023/06/27 05:05:34;;;;;;;6.47;2.90;;;15.60;99.90;;;;;;5075205;28;21004;-57
2023/06/27 05:08:04;;;;;;;11.23;3.50;;;15.60;99.90;;;;;;5076152;28;20055;-58
2023/06/27 05:10:33;;;;;;;6.97;3.60;;;15.70;99.90;;;;;;5075044;28;20040;-58
2023/06/27 05:12:59;;;;;;;11.40;4.00;;;15.80;99.90;;;;;;5066436;28;20044;-58
2023/06/27 05:15:26;;;;;;;8.20;3.42;;;16.00;99.90;;;;;;5065076;28;20057;-57
2023/06/27 05:18:14;;;;;;;8.68;3.70;;;16.00;99.90;;;;;;5063655;28;20045;-57
2023/06/27 05:20:44;;;;;;;8.68;3.50;;;16.10;99.90;;;;;;5060655;28;20677;-58
2023/06/27 05:23:10;;;;;;;6.88;3.33;;;16.10;99.90;;;;;;5062888;28;20047;-58
2023/06/27 05:25:35;;;;;;;7.10;3.08;;;16.00;99.90;;;;;;5069878;28;20051;-57
2023/06/27 05:28:01;;;;;;;11.05;3.30;;;16.10;99.90;;;;;;5067386;28;20036;-58
2023/06/27 05:30:28;;;;;;;7.90;2.97;;;16.10;99.90;;;;;;5075364;28;20059;-58
2023/06/27 05:32:54;;;;;;;9.27;3.25;;;16.10;99.90;;;;;;5070177;28;20041;-58
2023/06/27 05:35:20;;;;;;;10.70;2.95;;;16.20;99.90;;;;;;5070259;28;20080;-57
2023/06/27 05:37:46;;;;;;;9.57;2.92;;;16.30;99.90;;;;;;5076018;28;20791;-57
2023/06/27 05:40:12;;;;;;;9.23;3.05;;;16.30;99.90;;;;;;5075798;28;20060;-58
2023/06/27 05:42:38;;;;;;;9.73;3.30;;;16.50;99.90;;;;;;5076193;28;20068;-58
2023/06/27 05:45:04;;;;;;;8.52;2.75;;;16.60;99.90;;;;;;5065445;28;20057;-58
2023/06/27 05:47:30;;;;;;;8.88;2.88;;;16.60;99.90;;;;;;5064310;28;20056;-57
2023/06/27 05:49:55;;;;;;;10.00;2.70;;;16.70;99.90;;;;;;5075857;28;20052;-57
2023/06/27 05:52:22;;;;;;;9.05;2.42;;;16.80;99.90;;;;;;5076064;28;20052;-58
2023/06/27 05:54:48;;;;;;;9.35;3.00;;;17.00;99.90;;;;;;5076119;28;20044;-58
2023/06/27 05:57:14;;;;;;;10.63;3.05;;;17.10;99.90;;;;;;5063288;28;20048;-57
2023/06/27 05:59:40;;;;;;;7.85;2.30;;;17.20;99.90;;;;;;5066542;28;20066;-58
2023/06/27 06:02:06;;;;;;;9.35;2.50;;;17.20;99.90;;;;;;5057188;28;20037;-58
2023/06/27 06:04:32;;;;;;;8.63;2.15;;;17.20;99.90;;;;;;5056418;28;20053;-58
2023/06/27 06:07:00;;;;;;;6.88;1.90;;;17.40;99.90;;;;;;5058339;28;20053;-57
2023/06/27 06:09:26;;;;;;;8.82;2.40;;;17.40;99.90;;;;;;5064389;28;20053;-57
2023/06/27 06:11:52;;;;;;;6.97;1.80;;;17.60;99.90;;;;;;5062448;28;20612;-57
2023/06/27 06:14:17;;;;;;;6.85;1.88;;;17.60;99.90;;;;;;5061279;28;20052;-58
2023/06/27 06:16:43;;;;;;;7.93;1.98;;;17.70;99.90;;;;;;5062861;28;20049;-58
2023/06/27 06:19:09;;;;;;;8.18;2.20;;;17.80;99.90;;;;;;5066237;28;20052;-58
2023/06/27 06:21:37;;;;;;;8.82;2.15;;;17.80;99.90;;;;;;5072186;28;20411;-58
2023/06/27 06:24:02;;;;;;;7.50;1.70;;;17.80;99.90;;;;;;5079215;28;20100;-58
2023/06/27 06:26:28;;;;;;;5.60;1.63;;;17.90;99.90;;;;;;5078363;28;20084;-58
2023/06/27 06:28:54;;;;;;;4.43;1.40;;;18.20;99.90;;;;;;5079411;28;20047;-57
2023/06/27 06:31:21;;;;;;;8.00;1.50;;;18.30;99.90;;;;;;5079413;28;20048;-58
2023/06/27 06:33:48;;;;;;;8.63;1.77;;;18.30;99.90;;;;;;5066524;28;20052;-57
2023/06/27 06:36:14;;;;;;;5.15;1.33;;;18.10;99.90;;;;;;5070028;28;20052;-58
2023/06/27 06:38:40;;;;;;;9.32;1.83;;;18.30;99.90;;;;;;5059439;28;20127;-56
2023/06/27 06:41:06;;;;;;;6.93;1.60;;;18.30;99.90;;;;;;5058823;28;20055;-57
2023/06/27 06:43:32;;;;;;;7.70;1.88;;;18.30;99.90;;;;;;5059502;28;20037;-57
2023/06/27 06:45:58;;;;;;;6.10;1.45;;;18.30;99.90;;;;;;5058727;28;20053;-58
2023/06/27 06:48:23;;;;;;;7.00;1.98;;;18.40;99.90;;;;;;5057877;28;20132;-58
2023/06/27 06:50:50;;;;;;;10.82;1.88;;;18.40;99.90;;;;;;5059219;28;20049;-58
2023/06/27 06:53:17;;;;;;;6.30;1.50;;;18.60;99.90;;;;;;5058623;28;20036;-58
2023/06/27 06:55:42;;;;;;;6.45;1.65;;;18.80;99.90;;;;;;5058970;28;20068;-58
2023/06/27 06:58:08;;;;;;;9.15;1.63;;;18.80;99.90;;;;;;5056441;28;20128;-58
2023/06/27 07:00:34;;;;;;;8.88;1.50;;;18.80;99.90;;;;;;5068885;28;20455;-57
2023/06/27 07:02:59;;;;;;;6.80;1.40;;;18.80;99.90;;;;;;5078816;28;20051;-56
2023/06/27 07:05:25;;;;;;;9.13;2.15;;;18.90;99.90;;;;;;5066874;28;20049;-57
2023/06/27 07:07:51;;;;;;;10.13;1.42;;;18.90;99.90;;;;;;5068675;28;20048;-57
2023/06/27 07:10:17;;;;;;;8.35;2.70;;;18.90;99.90;;;;;;5061116;28;20059;-57
2023/06/27 07:12:42;;;;;;;9.10;1.60;;;18.90;99.90;;;;;;5063402;28;20043;-57
2023/06/27 07:15:08;;;;;;;6.75;1.30;;;18.90;99.90;;;;;;5056935;28;20053;-56
2023/06/27 07:17:34;;;;;;;8.95;1.45;;;18.90;99.90;;;;;;5058704;28;20041;-58
2023/06/27 07:20:01;;;;;;;5.32;1.30;;;18.70;99.90;;;;;;5058364;28;20041;-56
2023/06/27 07:22:27;;;;;;;7.40;1.88;;;18.70;99.90;;;;;;5058022;28;20138;-56
2023/06/27 07:24:52;;;;;;;7.60;1.60;;;18.80;99.90;;;;;;5058513;28;20488;-56
2023/06/27 07:27:18;;;;;;;5.30;0.93;;;18.70;99.90;;;;;;5057583;28;20041;-56
2023/06/27 07:29:44;;;;;;;4.82;1.33;;;18.70;99.90;;;;;;5058358;28;20099;-56
2023/06/27 07:32:11;;;;;;;7.75;1.35;;;18.70;99.90;;;;;;5057674;28;20044;-56
2023/06/27 07:34:39;;;;;;;4.25;1.00;;;18.80;99.90;;;;;;5057851;28;20041;-56
2023/06/27 07:37:06;;;;;;;7.15;1.50;;;19.00;99.90;;;;;;5057635;28;20048;-56
2023/06/27 07:39:31;;;;;;;7.20;1.42;;;18.90;99.90;;;;;;5058512;28;20060;-56
2023/06/27 07:41:57;;;;;;;6.38;1.33;;;19.00;99.90;;;;;;5058183;28;20096;-56
2023/06/27 07:44:23;;;;;;;6.95;1.30;;;19.20;99.90;;;;;;5059470;28;20152;-54
2023/06/27 07:46:48;;;;;;;7.05;1.50;;;19.40;99.90;;;;;;5058834;28;20060;-55
2023/06/27 07:49:15;;;;;;;6.20;1.27;;;19.50;99.90;;;;;;5059682;28;20047;-57
2023/06/27 07:51:41;;;;;;;6.88;1.15;;;19.60;99.90;;;;;;5060543;28;20515;-56
2023/06/27 07:54:07;;;;;;;5.22;1.55;;;19.70;99.90;;;;;;5060499;28;20044;-55
2023/06/27 07:56:32;;;;;;;7.00;1.10;;;19.40;98.80;;;;;;5061206;28;20072;-56
2023/06/27 07:58:59;;;;;;;6.28;1.25;;;19.40;99.70;;;;;;5060589;28;20092;-55
2023/06/27 08:01:25;;;;;;;5.70;1.48;;;19.70;99.70;;;;;;5060472;28;20053;-56
2023/06/27 08:03:51;;;;;;;5.38;1.10;;;19.80;99.80;;;;;;5060723;28;20076;-56
2023/06/27 08:06:17;;;;;;;8.85;1.48;;;19.90;98.60;;;;;;5060156;28;20044;-56
2023/06/27 08:08:42;;;;;;;6.05;1.30;;;19.80;98.90;;;;;;5059360;28;20052;-56
2023/06/27 08:11:08;;;;;;;8.43;1.75;;;19.60;99.50;;;;;;5060365;28;20036;-56
2023/06/27 08:13:38;;;;;;;6.65;1.05;;;19.50;98.90;;;;;;5060757;28;20090;-56
2023/06/27 08:16:04;;;;;;;6.40;1.05;;;19.30;98.50;;;;;;5060819;28;20052;-56
2023/06/27 08:18:30;;;;;;;7.85;1.42;;;19.80;99.90;;;;;;5078008;28;20085;-56
2023/06/27 08:20:55;;;;;;;5.25;1.48;;;19.90;99.60;;;;;;5080470;28;20080;-56
2023/06/27 08:23:21;;;;;;;4.40;1.10;;;19.80;98.30;;;;;;5079563;28;20041;-56
2023/06/27 08:25:47;;;;;;;3.50;1.10;;;19.90;97.90;;;;;;5080392;28;20087;-55
2023/06/27 08:28:13;;;;;;;5.78;1.15;;;19.60;97.50;;;;;;5080000;28;20040;-55
2023/06/27 08:30:41;;;;;;;5.15;1.20;;;19.40;97.90;;;;;;5080527;28;20044;-56
2023/06/27 08:33:06;;;;;;;5.47;1.20;;;19.70;98.20;;;;;;5079982;28;20579;-55
2023/06/27 08:35:35;;;;;;;6.95;1.23;;;20.00;98.70;;;;;;5080215;28;20041;-56
2023/06/27 08:38:00;;;;;;;6.07;1.20;;;19.70;98.50;;;;;;5079462;28;20083;-56
2023/06/27 08:40:26;;;;;;;6.80;1.30;;;19.80;99.20;;;;;;5078478;28;20044;-56
2023/06/27 08:42:52;;;;;;;6.55;1.90;;;19.40;98.50;;;;;;5079749;28;20044;-56
2023/06/27 08:45:18;;;;;;;4.57;1.33;;;19.30;98.40;;;;;;5078982;28;20044;-56
2023/06/27 08:47:45;;;;;;;6.90;1.25;;;19.20;96.90;;;;;;5070901;28;20087;-55
2023/06/27 08:50:13;;;;;;;4.70;1.00;;;19.40;96.10;;;;;;5063414;28;20041;-55
2023/06/27 08:52:51;;;;;;;8.15;1.45;;;19.70;96.50;;;;;;5068028;28;20140;-56
2023/06/27 08:55:35;;;;;;;5.47;1.10;;;20.00;96.30;;;;;;5070342;28;20063;-56
2023/06/27 08:58:07;;;;;;;5.15;1.17;;;20.00;96.00;;;;;;5065303;28;20053;-56
2023/06/27 09:00:34;;;;;;;5.75;1.48;;;20.10;96.10;;;;;;5066433;28;20048;-56
2023/06/27 09:03:01;;;;;;;5.43;1.35;;;19.90;96.70;;;;;;5073505;28;20055;-55
2023/06/27 09:05:28;;;;;;;9.25;1.20;;;19.90;96.70;;;;;;5070152;28;20608;-56
2023/06/27 09:07:54;;;;;;;5.93;1.23;;;20.10;97.10;;;;;;5059943;28;20037;-55
2023/06/27 09:10:20;;;;;;;5.38;1.10;;;20.00;97.50;;;;;;5077978;28;20512;-56
2023/06/27 09:12:49;;;;;;;3.97;1.00;;;19.90;96.20;;;;;;5073517;28;20143;-56
2023/06/27 09:15:15;;;;;;;6.45;1.27;;;20.00;96.90;;;;;;5064071;28;20033;-56
2023/06/27 09:17:41;;;;;;;6.05;1.00;;;20.00;95.90;;;;;;5068379;28;20110;-55
2023/06/27 09:20:07;;;;;;;4.28;1.35;;;20.00;95.80;;;;;;5062197;28;20068;-56
2023/06/27 09:22:35;;;;;;;6.50;1.40;;;20.00;96.10;;;;;;5067753;28;20049;-56
2023/06/27 09:25:16;;;;;;;4.30;1.08;;;19.90;95.70;;;;;;5067923;28;20055;-55
2023/06/27 09:27:43;;;;;;;4.85;1.15;;;19.70;96.10;;;;;;5065887;28;20047;-56
2023/06/27 09:30:10;;;;;;;6.93;1.25;;;19.90;95.90;;;;;;5068313;28;20040;-55
2023/06/27 09:32:55;;;;;;;6.10;1.30;;;20.00;96.20;;;;;;5066867;28;20044;-55
2023/06/27 09:35:21;;;;;;;6.30;1.13;;;20.10;95.80;;;;;;5066875;28;20096;-56
2023/06/27 09:37:47;;;;;;;5.95;1.17;;;20.20;96.50;;;;;;5065956;28;20052;-56
2023/06/27 09:40:24;;;;;;;4.70;1.05;;;20.10;95.00;;;;;;5077403;28;20451;-56
2023/06/27 09:42:52;;;;;;;4.90;1.00;;;20.00;95.30;;;;;;5067609;28;20065;-55
2023/06/27 09:45:19;;;;;;;6.40;1.15;;;19.90;96.40;;;;;;5073166;28;20041;-56
2023/06/27 09:47:47;;;;;;;6.70;1.42;;;19.70;96.50;;;;;;5076735;28;20029;-54
2023/06/27 09:50:13;;;;;;;5.70;1.20;;;19.70;95.80;;;;;;5074050;28;20045;-56
2023/06/27 09:52:39;;;;;;;6.97;1.25;;;19.80;96.00;;;;;;5070931;28;20051;-56
2023/06/27 09:55:18;;;;;;;4.60;1.00;;;20.00;97.10;;;;;;5076339;28;20147;-55
2023/06/27 09:57:44;;;;;;;7.75;1.33;;;20.10;96.90;;;;;;5081571;28;20052;-56
2023/06/27 10:00:12;;;;;;;5.45;1.42;;;19.90;96.10;;;;;;5082610;28;20049;-56
2023/06/27 10:02:38;;;;;;;6.65;1.20;;;20.10;97.10;;;;;;5082816;28;20507;-53
2023/06/27 10:05:04;;;;;;;5.35;1.48;;;20.00;96.70;;;;;;5083087;28;20048;-55
2023/06/27 10:07:31;;;;;;;5.82;1.25;;;20.00;97.40;;;;;;5082731;28;20053;-55
2023/06/27 10:09:57;;;;;;;4.20;1.08;;;19.70;97.20;;;;;;5082554;28;20583;-56
2023/06/27 10:12:24;;;;;;;6.70;1.20;;;20.00;97.50;;;;;;5082968;28;20048;-56
2023/06/27 10:14:50;;;;;;;6.55;1.25;;;20.00;97.40;;;;;;5082382;28;20048;-55
2023/06/27 10:17:18;;;;;;;5.88;1.48;;;20.00;97.20;;;;;;5082941;28;20572;-56
2023/06/27 10:19:45;;;;;;;5.40;1.08;;;20.10;95.90;;;;;;5082594;28;20045;-54
2023/06/27 10:22:16;;;;;;;5.65;1.10;;;20.10;96.20;;;;;;5082779;28;20460;-56
2023/06/27 10:24:44;;;;;;;6.38;1.42;;;20.10;96.60;;;;;;5081134;28;20474;-55
2023/06/27 10:27:13;;;;;;;5.40;1.00;;;20.00;95.90;;;;;;5082146;28;20440;-56
2023/06/27 10:29:42;;;;;;;7.93;1.20;;;20.10;96.30;;;;;;5082485;28;20056;-56
2023/06/27 10:32:15;;;;;;;5.47;1.20;;;20.20;97.00;;;;;;5081954;28;20058;-54
2023/06/27 10:34:42;;;;;;;5.57;1.10;;;19.80;96.40;;;;;;5082304;28;20044;-55
2023/06/27 10:37:18;;;;;;;9.48;1.00;;;20.10;96.30;;;;;;5081740;28;20538;-54
2023/06/27 10:40:00;;;;;;;7.72;1.20;;;20.40;96.60;;;;;;5082479;28;20105;-56
2023/06/27 10:42:31;;;;;;;3.80;1.00;;;20.40;96.10;;;;;;5081203;28;20051;-56
2023/06/27 10:45:09;;;;;;;6.43;1.20;;;20.10;96.40;;;;;;5081871;28;20044;-56
2023/06/27 10:47:44;;;;;;;7.93;2.38;;;20.40;97.00;;;;;;5082325;28;20279;-55
2023/06/27 10:50:12;;;;;;;6.93;1.10;;;20.50;97.10;;;;;;5081894;28;20040;-54
2023/06/27 10:52:39;;;;;;;7.65;1.50;;;20.10;96.30;;;;;;5081023;28;20060;-56
2023/06/27 10:55:14;;;;;;;5.22;1.10;;;20.10;95.50;;;;;;5082156;28;20041;-56
2023/06/27 10:57:43;;;;;;;6.53;1.23;;;20.10;95.50;;;;;;5081274;28;20056;-56
2023/06/27 11:00:13;;;;;;;6.05;2.00;;;20.00;95.30;;;;;;5082260;28;20037;-55
2023/06/27 11:02:43;;;;;;;4.00;1.00;;;20.30;95.30;;;;;;5081158;28;20052;-55
2023/06/27 11:05:15;;;;;;;7.78;1.35;;;20.00;95.80;;;;;;5082067;28;20495;-54
2023/06/27 11:07:54;;;;;;;7.22;1.30;;;20.30;95.90;;;;;;5082010;28;20412;-55
2023/06/27 11:10:29;;;;;;;6.13;1.25;;;20.60;95.70;;;;;;5081477;28;20029;-56
2023/06/27 11:13:13;;;;;;;6.65;1.40;;;20.30;95.50;;;;;;5082201;28;20071;-55
2023/06/27 11:15:40;;;;;;;9.90;2.10;;;20.50;96.10;;;;;;5081757;28;20049;-54
2023/06/27 11:18:06;;;;;;;6.20;1.42;;;20.50;96.20;;;;;;5081988;28;20052;-56
2023/06/27 11:20:32;;;;;;;5.43;1.33;;;20.60;95.50;;;;;;5081673;28;20100;-56
2023/06/27 11:23:03;;;;;;;8.60;1.40;;;20.50;95.90;;;;;;5079938;28;20059;-55
2023/06/27 11:25:38;;;;;;;4.63;1.10;;;20.50;95.20;;;;;;5066572;28;20059;-55
2023/06/27 11:28:05;;;;;;;6.07;1.30;;;20.20;95.10;;;;;;5072029;28;20062;-54
2023/06/27 11:30:33;;;;;;;5.55;1.17;;;20.50;96.40;;;;;;5064001;28;20523;-56
2023/06/27 11:32:59;;;;;;;4.10;1.17;;;20.60;94.90;;;;;;5068165;28;20040;-54
2023/06/27 11:35:25;;;;;;;5.25;0.95;;;20.30;95.40;;;;;;5069884;28;20095;-55
2023/06/27 11:37:54;;;;;;;7.18;1.20;;;20.50;95.00;;;;;;5071126;28;20452;-54
2023/06/27 11:40:21;;;;;;;6.43;1.75;;;20.50;95.10;;;;;;5069763;28;20037;-56
2023/06/27 11:42:47;;;;;;;5.78;1.20;;;20.50;94.10;;;;;;5068048;28;20044;-56
2023/06/27 11:45:13;;;;;;;6.57;1.30;;;20.40;95.40;;;;;;5068581;28;20060;-55
2023/06/27 11:47:39;;;;;;;6.78;1.20;;;20.50;96.80;;;;;;5069478;28;20123;-54
2023/06/27 11:50:10;;;;;;;4.63;0.90;;;20.30;94.60;;;;;;5068799;28;20099;-55
2023/06/27 11:52:38;;;;;;;3.90;0.90;;;20.20;94.00;;;;;;5070155;28;20048;-56
2023/06/27 11:55:05;;;;;;;5.07;1.00;;;20.30;94.70;;;;;;5066705;28;20070;-55
2023/06/27 11:57:44;;;;;;;4.20;0.95;;;20.30;93.50;;;;;;5064706;28;20086;-56
2023/06/27 12:00:14;;;;;;;6.25;1.58;;;20.50;94.00;;;;;;5080109;28;20049;-56
2023/06/27 12:02:40;;;;;;;7.82;1.20;;;20.80;94.30;;;;;;5078134;28;20052;-54
2023/06/27 12:05:13;;;;;;;5.47;1.30;;;20.60;94.60;;;;;;5080500;28;20048;-56
2023/06/27 12:07:39;;;;;;;7.18;1.33;;;20.70;95.60;;;;;;5077739;28;20047;-55
2023/06/27 12:10:08;;;;;;;6.30;1.27;;;20.40;94.70;;;;;;5079831;28;20032;-55
2023/06/27 12:12:36;;;;;;;5.13;1.33;;;20.20;94.10;;;;;;5080248;28;20109;-56
2023/06/27 12:15:13;;;;;;;4.60;1.02;;;20.20;94.80;;;;;;5067055;28;20511;-56
2023/06/27 12:17:53;;;;;;;5.82;1.52;;;20.10;94.10;;;;;;5073334;28;20125;-55
2023/06/27 12:20:19;;;;;;;5.85;1.13;;;20.30;94.30;;;;;;5060673;28;20117;-54
2023/06/27 12:22:45;;;;;;;6.05;1.15;;;20.50;95.00;;;;;;5060296;28;20029;-56
2023/06/27 12:25:10;;;;;;;4.47;1.00;;;20.20;94.50;;;;;;5060499;28;20051;-55
2023/06/27 12:27:36;;;;;;;6.07;1.50;;;20.10;94.50;;;;;;5066112;28;20068;-55
2023/06/27 12:30:02;;;;;;;6.28;1.25;;;20.20;95.30;;;;;;5067929;28;20032;-56
2023/06/27 12:32:28;;;;;;;5.70;1.00;;;20.30;95.50;;;;;;5071094;28;20041;-56
2023/06/27 12:34:54;;;;;;;5.15;1.10;;;20.20;95.30;;;;;;5060390;28;20052;-55
2023/06/27 12:37:20;;;;;;;4.82;1.27;;;20.20;95.20;;;;;;5059774;28;20045;-56
2023/06/27 12:39:46;;;;;;;3.72;1.10;;;20.20;94.60;;;;;;5059824;28;20049;-56
2023/06/27 12:42:11;;;;;;;8.60;1.17;;;20.10;93.90;;;;;;5060133;28;20516;-56
2023/06/27 12:44:37;;;;;;;6.80;1.42;;;20.10;94.10;;;;;;5059371;28;20390;-56
2023/06/27 12:47:03;;;;;;;6.78;1.30;;;20.10;94.80;;;;;;5059805;28;20532;-56